createdAt,value
2019-04-14T00:03:32.490Z,1.95
2019-04-14T00:07:49.559Z,1.97
2019-04-14T00:12:04.204Z,1.90
2019-04-14T00:16:18.602Z,1.95
2019-04-14T00:20:23.507Z,1.90
2019-04-14T00:24:33.485Z,2.00
2019-04-14T00:28:46.997Z,1.95
2019-04-14T00:32:53.119Z,1.95
2019-04-14T00:37:16.440Z,2.04
2019-04-14T00:41:36.229Z,1.95
2019-04-14T00:45:46.504Z,2.00
2019-04-14T00:49:44.064Z,1.98
2019-04-14T00:53:47.737Z,1.90
2019-04-14T00:57:51.305Z,1.91
2019-04-14T01:01:54.917Z,1.90
2019-04-14T01:05:59.016Z,1.85
2019-04-14T01:10:03.895Z,1.82
2019-04-14T01:14:08.019Z,1.80
2019-04-14T01:18:12.560Z,1.82
2019-04-14T01:22:16.338Z,1.79
2019-04-14T01:26:20.374Z,1.77
2019-04-14T01:30:24.162Z,1.56
2019-04-14T01:34:28.189Z,1.48
2019-04-14T01:38:32.040Z,1.49
2019-04-14T01:42:35.638Z,1.51
2019-04-14T01:46:39.448Z,1.62
2019-04-14T01:51:01.043Z,1.66
2019-04-14T01:55:20.590Z,1.61
2019-04-14T01:59:24.549Z,1.51
2019-04-14T02:03:28.258Z,1.37
2019-04-14T02:07:31.988Z,1.32
2019-04-14T02:11:35.674Z,1.24
2019-04-14T02:15:39.653Z,1.29
2019-04-14T02:19:43.869Z,1.23
2019-04-14T02:23:47.601Z,1.14
2019-04-14T02:27:51.546Z,1.09
2019-04-14T02:32:25.505Z,1.12
2019-04-14T02:40:36.398Z,1.13
2019-04-14T02:44:51.649Z,1.10
2019-04-14T02:48:58.338Z,1.10
2019-04-14T02:52:53.697Z,1.15
2019-04-14T03:05:06.267Z,1.02
2019-04-14T03:09:23.181Z,0.93
2019-04-14T03:13:23.021Z,0.94
2019-04-14T03:17:30.256Z,0.95
2019-04-14T03:21:49.283Z,0.96
2019-04-14T03:26:08.376Z,1.05
2019-04-14T03:30:39.051Z,1.01
2019-04-14T03:34:34.500Z,1.02
2019-04-14T03:42:35.799Z,0.98
2019-04-14T03:50:48.008Z,0.91
2019-04-14T03:54:40.534Z,0.91
2019-04-14T03:58:27.820Z,0.90
2019-04-14T04:02:31.560Z,0.90
2019-04-14T04:06:35.667Z,0.89
2019-04-14T04:10:42.161Z,0.90
2019-04-14T04:14:46.401Z,0.93
2019-04-14T04:18:57.962Z,0.92
2019-04-14T04:23:14.170Z,0.91
2019-04-14T04:27:22.340Z,0.87
2019-04-14T04:31:28.603Z,0.91
2019-04-14T04:35:34.717Z,1.00
2019-04-14T04:39:41.189Z,0.98
2019-04-14T04:43:45.185Z,1.03
2019-04-14T04:47:49.213Z,1.14
2019-04-14T04:51:53.088Z,1.15
2019-04-14T04:55:56.853Z,1.22
2019-04-14T05:00:00.674Z,1.29
2019-04-14T05:04:04.633Z,1.37
2019-04-14T05:08:08.704Z,1.28
2019-04-14T05:12:15.331Z,1.42
2019-04-14T05:16:19.281Z,1.46
2019-04-14T05:20:24.827Z,1.48
2019-04-14T05:24:29.086Z,1.49
2019-04-14T05:28:33.225Z,1.40
2019-04-14T05:32:37.027Z,1.53
2019-04-14T05:36:41.140Z,1.61
2019-04-14T05:40:45.106Z,1.65
2019-04-14T05:44:49.452Z,1.72
2019-04-14T05:48:53.635Z,1.77
2019-04-14T05:52:57.971Z,1.89
2019-04-14T05:57:04.327Z,1.89
2019-04-14T06:01:09.315Z,2.12
2019-04-14T06:05:14.244Z,2.47
2019-04-14T06:09:18.069Z,2.56
2019-04-14T06:13:21.707Z,2.68
2019-04-14T06:17:25.255Z,2.74
2019-04-14T06:21:29.039Z,3.06
2019-04-14T06:25:32.672Z,3.43
2019-04-14T06:29:36.243Z,3.40
2019-04-14T06:33:48.357Z,3.32
2019-04-14T06:37:53.618Z,3.49
2019-04-14T06:41:57.577Z,3.54
2019-04-14T06:46:01.289Z,3.69
2019-04-14T06:50:06.912Z,3.96
2019-04-14T06:54:10.523Z,4.00
2019-04-14T06:58:14.056Z,3.93
2019-04-14T07:02:17.680Z,4.32
2019-04-14T07:06:21.272Z,4.48
2019-04-14T07:10:24.842Z,4.56
2019-04-14T07:14:31.752Z,4.67
2019-04-14T07:18:33.941Z,5.22
2019-04-14T07:22:37.686Z,4.54
2019-04-14T07:26:41.578Z,4.27
2019-04-14T07:30:46.786Z,4.39
2019-04-14T07:35:00.995Z,4.22
2019-04-14T07:39:11.262Z,4.39
2019-04-14T07:43:35.268Z,4.18
2019-04-14T07:47:43.431Z,4.25
2019-04-14T07:51:48.727Z,4.58
2019-04-14T07:56:08.934Z,5.11
2019-04-14T08:00:14.696Z,5.11
2019-04-14T08:04:19.978Z,5.18
2019-04-14T08:08:23.748Z,5.32
2019-04-14T08:12:28.000Z,5.48
2019-04-14T08:16:31.708Z,5.35
2019-04-14T08:20:36.244Z,5.46
2019-04-14T08:24:39.858Z,5.54
2019-04-14T08:28:43.404Z,5.82
2019-04-14T08:32:46.977Z,5.96
2019-04-14T08:36:52.186Z,5.67
2019-04-14T08:40:55.710Z,5.61
2019-04-14T08:45:00.995Z,5.66
2019-04-14T08:49:06.353Z,5.92
2019-04-14T08:53:11.611Z,6.19
2019-04-14T08:57:19.729Z,6.75
2019-04-14T09:01:40.029Z,6.76
2019-04-14T09:06:01.641Z,6.57
2019-04-14T09:10:21.234Z,6.65
2019-04-14T09:14:24.768Z,6.68
2019-04-14T09:18:28.399Z,6.62
2019-04-14T09:22:32.093Z,6.25
2019-04-14T09:26:35.815Z,5.98
2019-04-14T09:30:39.532Z,5.76
2019-04-14T09:34:43.244Z,5.71
2019-04-14T09:38:46.801Z,5.68
2019-04-14T09:42:50.471Z,5.75
2019-04-14T09:46:54.190Z,6.15
2019-04-14T09:51:04.666Z,6.66
2019-04-14T09:55:03.133Z,6.39
2019-04-14T09:59:06.769Z,6.53
2019-04-14T10:03:10.596Z,5.89
2019-04-14T10:07:14.202Z,5.72
2019-04-14T10:11:18.026Z,6.00
2019-04-14T10:15:21.637Z,6.42
2019-04-14T10:19:25.247Z,6.26
2019-04-14T10:23:28.815Z,6.42
2019-04-14T10:27:32.474Z,6.79
2019-04-14T10:31:36.090Z,6.28
2019-04-14T10:35:39.642Z,5.67
2019-04-14T10:39:43.725Z,5.99
2019-04-14T10:43:47.543Z,5.95
2019-04-14T10:47:51.264Z,5.96
2019-04-14T10:51:54.985Z,6.31
2019-04-14T10:55:58.588Z,5.77
2019-04-14T11:00:02.520Z,5.70
2019-04-14T11:04:08.059Z,5.64
2019-04-14T11:08:11.477Z,5.30
2019-04-14T11:12:15.194Z,5.49
2019-04-14T11:16:18.915Z,5.42
2019-04-14T11:20:22.681Z,5.38
2019-04-14T11:24:26.364Z,5.45
2019-04-14T11:28:29.968Z,5.40
2019-04-14T11:32:51.593Z,5.26
2019-04-14T11:37:14.670Z,5.26
2019-04-14T11:41:19.922Z,5.43
2019-04-14T11:45:23.597Z,5.31
2019-04-14T11:49:27.245Z,5.53
2019-04-14T11:53:30.963Z,5.71
2019-04-14T11:57:34.573Z,5.69
2019-04-14T12:01:55.953Z,5.88
2019-04-14T12:06:06.913Z,5.74
2019-04-14T12:10:12.251Z,5.74
2019-04-14T12:14:15.811Z,5.70
2019-04-14T12:18:19.419Z,5.62
2019-04-14T12:22:23.094Z,5.59
2019-04-14T12:26:26.982Z,5.72
2019-04-14T12:30:31.305Z,5.79
2019-04-14T12:34:34.852Z,5.56
2019-04-14T12:38:38.465Z,5.75
2019-04-14T12:42:46.368Z,5.82
2019-04-14T12:46:51.632Z,5.88
2019-04-14T12:50:59.868Z,5.94
2019-04-14T12:55:03.574Z,5.77
2019-04-14T12:59:08.929Z,5.80
2019-04-14T13:03:12.649Z,5.76
2019-04-14T13:07:16.360Z,6.03
2019-04-14T13:11:20.177Z,6.09
2019-04-14T13:15:24.317Z,6.07
2019-04-14T13:19:27.916Z,6.12
2019-04-14T13:23:31.539Z,6.03
2019-04-14T13:27:35.142Z,5.88
2019-04-14T13:31:38.866Z,5.80
2019-04-14T13:35:42.497Z,5.94
2019-04-14T13:39:46.022Z,6.04
2019-04-14T13:43:49.652Z,6.19
2019-04-14T13:47:53.215Z,6.34
2019-04-14T13:51:56.833Z,6.58
2019-04-14T13:56:00.380Z,6.63
2019-04-14T14:00:06.446Z,6.56
2019-04-14T14:04:10.028Z,6.44
2019-04-14T14:08:13.749Z,6.33
2019-04-14T14:12:35.281Z,6.23
2019-04-14T14:16:58.332Z,6.30
2019-04-14T14:21:20.092Z,6.31
2019-04-14T14:25:25.335Z,6.52
2019-04-14T14:29:29.328Z,6.59
2019-04-14T14:33:32.979Z,6.55
2019-04-14T14:37:36.584Z,6.60
2019-04-14T14:41:40.404Z,6.60
2019-04-14T14:45:45.961Z,6.53
2019-04-14T14:50:00.708Z,6.47
2019-04-14T14:54:04.460Z,6.45
2019-04-14T14:58:08.172Z,6.42
2019-04-14T15:02:11.890Z,6.50
2019-04-14T15:06:15.843Z,6.48
2019-04-14T15:10:20.388Z,6.54
2019-04-14T15:14:25.073Z,6.51
2019-04-14T15:18:29.226Z,6.76
2019-04-14T15:22:32.928Z,6.91
2019-04-14T15:26:36.748Z,6.90
2019-04-14T15:30:40.358Z,6.96
2019-04-14T15:34:43.971Z,7.05
2019-04-14T15:38:47.591Z,7.16
2019-04-14T15:42:51.198Z,7.11
2019-04-14T15:46:55.183Z,7.09
2019-04-14T15:55:44.244Z,6.91
2019-04-14T16:00:11.639Z,6.87
2019-04-14T16:04:36.359Z,6.88
2019-04-14T16:09:11.970Z,6.86
2019-04-14T16:13:16.816Z,6.93
2019-04-14T16:17:24.658Z,7.19
2019-04-14T16:21:28.178Z,7.27
2019-04-14T16:25:39.286Z,7.21
2019-04-14T16:29:47.152Z,7.11
2019-04-14T16:34:08.632Z,7.08
2019-04-14T16:38:12.363Z,6.99
2019-04-14T16:42:16.026Z,7.12
2019-04-14T16:46:20.244Z,7.23
2019-04-14T16:50:24.572Z,7.18
2019-04-14T16:54:33.109Z,7.15
2019-04-14T16:58:38.272Z,7.17
2019-04-14T17:02:41.972Z,7.17
2019-04-14T17:06:45.589Z,7.21
2019-04-14T17:10:49.209Z,7.16
2019-04-14T17:15:06.333Z,7.09
2019-04-14T17:19:20.495Z,7.04
2019-04-14T17:23:31.815Z,6.97
2019-04-14T17:27:37.039Z,6.90
2019-04-14T17:31:54.374Z,6.86
2019-04-14T17:35:59.626Z,6.90
2019-04-14T17:40:05.170Z,6.81
2019-04-14T17:44:12.822Z,6.80
2019-04-14T17:48:26.849Z,6.75
2019-04-14T17:52:38.047Z,6.75
2019-04-14T17:56:46.170Z,6.76
2019-04-14T18:00:54.420Z,6.72
2019-04-14T18:05:06.127Z,6.69
2019-04-14T18:09:11.409Z,6.63
2019-04-14T18:13:19.256Z,6.64
2019-04-14T18:17:30.772Z,6.60
2019-04-14T18:21:34.476Z,6.54
2019-04-14T18:25:38.564Z,6.51
2019-04-14T18:29:52.722Z,6.48
2019-04-14T18:34:14.644Z,6.47
2019-04-14T18:38:36.588Z,6.48
2019-04-14T18:42:42.329Z,6.46
2019-04-14T18:47:03.823Z,6.45
2019-04-14T18:51:15.652Z,6.31
2019-04-14T18:55:39.839Z,6.33
2019-04-14T18:59:46.844Z,6.35
2019-04-14T19:03:50.661Z,6.35
2019-04-14T19:07:54.573Z,6.36
2019-04-14T19:12:06.200Z,6.33
2019-04-14T19:16:38.603Z,6.35
2019-04-14T19:20:33.887Z,6.38
2019-04-14T19:24:39.144Z,6.38
2019-04-14T19:28:42.941Z,6.47
2019-04-14T19:32:46.790Z,6.49
2019-04-14T19:36:51.509Z,6.46
2019-04-14T19:40:55.151Z,6.58
2019-04-14T19:44:59.049Z,6.58
2019-04-14T19:49:02.966Z,6.56
2019-04-14T19:53:06.684Z,6.61
2019-04-14T19:57:10.504Z,6.67
2019-04-14T20:01:14.325Z,6.69
2019-04-14T20:05:17.933Z,6.76
2019-04-14T20:09:21.648Z,6.68
2019-04-14T20:13:26.392Z,6.66
2019-04-14T20:17:31.639Z,6.71
2019-04-14T20:21:52.770Z,6.60
2019-04-14T20:25:58.016Z,6.65
2019-04-14T20:30:03.371Z,6.50
2019-04-14T20:34:07.189Z,6.56
2019-04-14T20:38:10.809Z,6.52
2019-04-14T20:42:14.416Z,6.52
2019-04-14T20:46:18.283Z,6.46
2019-04-14T20:50:22.063Z,6.45
2019-04-14T20:54:25.671Z,6.37
2019-04-14T20:58:29.388Z,6.38
2019-04-14T21:02:34.607Z,6.36
2019-04-14T21:06:48.490Z,6.47
2019-04-14T21:11:02.250Z,6.47
2019-04-14T21:15:17.426Z,6.41
2019-04-14T21:19:25.956Z,6.45
2019-04-14T21:23:40.321Z,6.42
2019-04-14T21:27:48.546Z,6.45
2019-04-14T21:31:53.799Z,6.45
2019-04-14T21:35:59.150Z,6.35
2019-04-14T21:40:16.690Z,6.31
2019-04-14T21:44:20.303Z,6.26
2019-04-14T21:48:23.938Z,6.21
2019-04-14T21:52:31.730Z,6.24
2019-04-14T21:56:36.527Z,6.13
2019-04-14T22:01:05.790Z,6.05
2019-04-14T22:05:23.234Z,6.05
2019-04-14T22:09:32.263Z,6.03
2019-04-14T22:13:35.976Z,6.03
2019-04-14T22:17:39.695Z,6.05
2019-04-14T22:21:43.409Z,6.05
2019-04-14T22:25:47.024Z,6.04
2019-04-14T22:29:50.906Z,6.06
2019-04-14T22:33:54.645Z,6.07
2019-04-14T22:37:58.375Z,5.98
2019-04-14T22:42:02.116Z,5.98
2019-04-14T22:46:05.713Z,5.89
2019-04-14T22:50:09.527Z,5.88
2019-04-14T22:54:13.063Z,5.82
2019-04-14T22:58:16.653Z,5.73
2019-04-14T23:02:38.093Z,5.76
2019-04-14T23:06:43.437Z,5.68
2019-04-14T23:10:57.904Z,5.57
2019-04-14T23:15:19.235Z,5.60
2019-04-14T23:19:24.486Z,5.54
2019-04-14T23:23:32.509Z,5.59
2019-04-14T23:27:36.119Z,5.51
2019-04-14T23:31:39.729Z,5.54
2019-04-14T23:35:43.448Z,5.48
2019-04-14T23:39:47.060Z,5.46
2019-04-14T23:43:50.677Z,5.41
2019-04-14T23:47:54.289Z,5.36
2019-04-14T23:51:57.950Z,5.29
2019-04-14T23:56:01.745Z,5.28
